Time;durP1;ratioP1;P1;durP2;ratioP2;P2;SDS_P1;SDS_P2;PMS_P1;PMS_P2;Temp;Humidity;BMP_temperature;BMP_pressure;BME280_temperature;BME280_humidity;BME280_pressure;Samples;Min_cycle;Max_cycle;Signal;HPM_P1;HPM_P2
2020/12/15 00:00:50;;;;;;;2.97;1.80;;;19.90;57.50;;;;;;4986032;28;20216;-57
2020/12/15 00:03:16;;;;;;;2.13;1.70;;;19.90;57.40;;;;;;4987600;28;20573;-58
2020/12/15 00:05:43;;;;;;;2.30;1.83;;;19.90;57.40;;;;;;4983596;28;20228;-59
2020/12/15 00:08:09;;;;;;;2.13;1.80;;;19.90;57.40;;;;;;4984609;28;20254;-56
2020/12/15 00:10:41;;;;;;;1.80;1.70;;;19.90;57.40;;;;;;4981887;28;20255;-57
2020/12/15 00:13:09;;;;;;;2.30;1.77;;;19.90;57.60;;;;;;4988183;28;20732;-58
2020/12/15 00:15:35;;;;;;;3.07;1.80;;;19.80;57.50;;;;;;4988228;28;20714;-57
2020/12/15 00:18:02;;;;;;;2.53;1.73;;;19.80;57.60;;;;;;4981797;28;20224;-56
2020/12/15 00:20:30;;;;;;;2.60;1.90;;;19.80;57.60;;;;;;4991208;28;20236;-58
2020/12/15 00:22:56;;;;;;;2.77;1.93;;;19.80;57.70;;;;;;4981030;28;20807;-58
2020/12/15 00:25:22;;;;;;;1.73;1.40;;;19.80;57.70;;;;;;4986225;28;20703;-57
2020/12/15 00:27:49;;;;;;;1.97;1.47;;;19.70;57.60;;;;;;4993186;28;20223;-57
2020/12/15 00:30:15;;;;;;;2.83;1.77;;;19.80;57.80;;;;;;5001563;28;20594;-59
2020/12/15 00:32:47;;;;;;;1.57;1.43;;;19.70;57.80;;;;;;4999930;28;20806;-59
2020/12/15 00:35:13;;;;;;;4.90;1.50;;;19.70;58.00;;;;;;5006876;28;20246;-56
2020/12/15 00:37:40;;;;;;;1.80;1.30;;;19.70;57.70;;;;;;5002001;28;20219;-57
2020/12/15 00:40:06;;;;;;;1.97;1.37;;;19.80;57.80;;;;;;5005914;28;20227;-57
2020/12/15 00:42:32;;;;;;;1.80;1.70;;;19.70;57.80;;;;;;4997155;28;20722;-58
2020/12/15 00:44:59;;;;;;;2.00;1.40;;;19.70;57.80;;;;;;5009163;28;20215;-58
2020/12/15 00:47:25;;;;;;;1.80;1.33;;;19.70;57.80;;;;;;5001513;28;20806;-57
2020/12/15 00:49:51;;;;;;;2.03;1.73;;;19.70;57.80;;;;;;5007415;28;20227;-57
2020/12/15 00:52:18;;;;;;;2.20;1.50;;;19.60;57.80;;;;;;5001511;28;20226;-58
2020/12/15 00:54:44;;;;;;;2.17;1.77;;;19.70;57.80;;;;;;5000899;28;20239;-58
2020/12/15 00:57:10;;;;;;;3.00;1.50;;;19.60;57.90;;;;;;5006181;28;20807;-58
2020/12/15 00:59:36;;;;;;;2.57;1.40;;;19.60;57.80;;;;;;5001838;28;20872;-58
2020/12/15 01:02:04;;;;;;;1.97;1.50;;;19.60;57.90;;;;;;5004859;28;20227;-58
2020/12/15 01:04:30;;;;;;;3.00;1.17;;;19.60;57.90;;;;;;5001220;28;20242;-57
2020/12/15 01:07:12;;;;;;;1.60;1.50;;;19.60;58.00;;;;;;5007897;28;20597;-57
2020/12/15 01:09:38;;;;;;;2.13;1.43;;;19.60;58.10;;;;;;4998271;28;20234;-59
2020/12/15 01:12:15;;;;;;;2.27;1.50;;;19.60;58.00;;;;;;5007226;28;20224;-56
2020/12/15 01:14:41;;;;;;;1.40;1.20;;;19.50;58.00;;;;;;4997846;28;20789;-57
2020/12/15 01:17:14;;;;;;;1.73;1.37;;;19.50;58.00;;;;;;5007335;28;20246;-58
2020/12/15 01:19:41;;;;;;;1.77;1.40;;;19.50;58.10;;;;;;5000469;28;20822;-59
2020/12/15 01:22:09;;;;;;;1.80;1.37;;;19.50;58.20;;;;;;5004747;28;20231;-59
2020/12/15 01:24:35;;;;;;;1.93;1.33;;;19.50;58.10;;;;;;4999732;28;20220;-58
2020/12/15 01:27:02;;;;;;;1.43;1.30;;;19.50;58.20;;;;;;5006408;28;20231;-58
2020/12/15 01:29:28;;;;;;;1.30;1.20;;;19.50;58.10;;;;;;5000265;28;20215;-58
2020/12/15 01:31:55;;;;;;;2.13;1.43;;;19.50;58.10;;;;;;5005900;28;20216;-58
2020/12/15 01:34:21;;;;;;;2.07;1.60;;;19.50;58.30;;;;;;4995896;28;20227;-58
2020/12/15 01:36:47;;;;;;;1.57;1.20;;;19.40;58.10;;;;;;5003692;28;20233;-58
2020/12/15 01:39:14;;;;;;;1.53;1.27;;;19.50;58.20;;;;;;5000630;28;20552;-58
2020/12/15 01:41:40;;;;;;;1.53;1.30;;;19.50;58.20;;;;;;5006295;28;20337;-58
2020/12/15 01:44:06;;;;;;;1.50;1.20;;;19.40;58.10;;;;;;5005274;28;20223;-58
2020/12/15 01:46:33;;;;;;;2.07;1.47;;;19.40;58.20;;;;;;5012471;28;20234;-57
2020/12/15 01:49:00;;;;;;;2.30;1.43;;;19.40;58.10;;;;;;5004156;28;20246;-59
2020/12/15 01:51:29;;;;;;;1.60;1.03;;;19.40;58.10;;;;;;5000062;28;20594;-58
2020/12/15 01:53:59;;;;;;;2.03;1.10;;;19.40;58.20;;;;;;5005337;28;20223;-58
2020/12/15 01:56:31;;;;;;;1.67;1.40;;;19.30;58.10;;;;;;4999327;28;20860;-58
2020/12/15 01:58:59;;;;;;;2.10;1.30;;;19.40;58.20;;;;;;5000049;28;20699;-58
2020/12/15 02:01:26;;;;;;;1.80;1.30;;;19.30;58.10;;;;;;4995607;28;20228;-58
2020/12/15 02:03:53;;;;;;;1.37;1.10;;;19.40;58.20;;;;;;5005612;28;20231;-58
2020/12/15 02:06:24;;;;;;;2.10;1.40;;;19.30;58.10;;;;;;5000263;28;20219;-58
2020/12/15 02:08:50;;;;;;;1.70;1.10;;;19.30;58.20;;;;;;5004092;28;20228;-58
2020/12/15 02:11:17;;;;;;;1.30;1.20;;;19.30;58.30;;;;;;4995413;28;20443;-58
2020/12/15 02:13:45;;;;;;;1.60;1.30;;;19.30;58.20;;;;;;5005994;28;20601;-58
2020/12/15 02:16:16;;;;;;;1.83;1.13;;;19.30;58.30;;;;;;4979843;28;21159;-58
2020/12/15 02:18:43;;;;;;;1.40;1.00;;;19.30;58.20;;;;;;4994610;28;20232;-58
2020/12/15 02:21:09;;;;;;;2.00;1.20;;;19.30;58.30;;;;;;4973343;28;20653;-58
2020/12/15 02:23:36;;;;;;;1.40;1.27;;;19.30;58.30;;;;;;4986627;28;20225;-59
2020/12/15 02:26:07;;;;;;;0.97;0.80;;;19.30;58.90;;;;;;4986650;28;20241;-58
2020/12/15 02:28:34;;;;;;;1.30;1.13;;;19.30;58.50;;;;;;4993847;28;20227;-58
2020/12/15 02:31:01;;;;;;;1.17;1.07;;;19.20;58.30;;;;;;4992916;28;20735;-58
2020/12/15 02:33:28;;;;;;;1.60;1.10;;;19.30;58.30;;;;;;4983041;28;20580;-58
2020/12/15 02:35:54;;;;;;;1.57;1.40;;;19.20;58.30;;;;;;4989511;28;20629;-58
2020/12/15 02:38:20;;;;;;;1.60;1.30;;;19.20;58.20;;;;;;4976455;28;20225;-58
2020/12/15 02:40:46;;;;;;;1.90;1.20;;;19.20;58.30;;;;;;4986066;28;20231;-58
2020/12/15 02:43:13;;;;;;;1.50;1.10;;;19.20;58.20;;;;;;4990029;28;20241;-58
2020/12/15 02:45:39;;;;;;;1.33;1.20;;;19.20;58.20;;;;;;5007092;28;21982;-58
2020/12/15 02:48:05;;;;;;;1.30;1.20;;;19.20;58.30;;;;;;5001388;28;20233;-58
2020/12/15 02:50:34;;;;;;;1.53;1.27;;;19.20;58.40;;;;;;5006737;28;20595;-58
2020/12/15 02:53:01;;;;;;;1.40;1.07;;;19.20;58.30;;;;;;5002793;28;20230;-58
2020/12/15 02:55:28;;;;;;;1.67;1.10;;;19.20;58.30;;;;;;5005437;28;20620;-58
2020/12/15 02:57:54;;;;;;;1.83;1.10;;;19.20;58.30;;;;;;5000300;28;20238;-58
2020/12/15 03:00:21;;;;;;;1.50;1.30;;;19.20;58.30;;;;;;5006991;28;20226;-58
2020/12/15 03:02:48;;;;;;;1.63;1.43;;;19.20;58.20;;;;;;5000880;28;20566;-58
2020/12/15 03:05:15;;;;;;;1.83;1.30;;;19.10;58.30;;;;;;5003832;28;20301;-58
2020/12/15 03:07:42;;;;;;;1.57;1.27;;;19.20;58.20;;;;;;5006500;28;20578;-58
2020/12/15 03:10:10;;;;;;;1.60;0.97;;;19.10;58.20;;;;;;5001350;28;20227;-58
2020/12/15 03:12:38;;;;;;;1.30;1.20;;;19.10;58.30;;;;;;5006397;28;20227;-59
2020/12/15 03:15:04;;;;;;;1.50;1.10;;;19.10;58.30;;;;;;5000552;28;20777;-58
2020/12/15 03:17:31;;;;;;;1.23;1.10;;;19.10;58.20;;;;;;5008326;28;20250;-58
2020/12/15 03:19:57;;;;;;;1.20;1.10;;;19.10;58.20;;;;;;5002803;28;20707;-58
2020/12/15 03:22:23;;;;;;;1.83;1.27;;;19.10;58.20;;;;;;5012469;28;20708;-57
2020/12/15 03:24:50;;;;;;;2.63;1.30;;;19.10;58.10;;;;;;5003034;28;20218;-57
2020/12/15 03:27:21;;;;;;;1.17;1.00;;;19.10;58.10;;;;;;5006428;28;20231;-58
2020/12/15 03:29:48;;;;;;;3.03;1.27;;;19.10;58.10;;;;;;4999900;28;20224;-58
2020/12/15 03:32:14;;;;;;;1.97;0.90;;;19.10;58.20;;;;;;5012038;28;20226;-58
2020/12/15 03:34:40;;;;;;;1.47;1.20;;;19.10;58.10;;;;;;5005541;28;20223;-57
2020/12/15 03:37:12;;;;;;;1.53;1.10;;;19.10;58.10;;;;;;5007032;28;20227;-58
2020/12/15 03:39:38;;;;;;;1.40;1.00;;;19.10;58.20;;;;;;5004570;28;20239;-57
2020/12/15 03:42:05;;;;;;;1.90;1.30;;;19.10;58.20;;;;;;5010485;28;20822;-57
2020/12/15 03:44:31;;;;;;;1.33;1.00;;;19.10;58.00;;;;;;5004987;28;20215;-57
2020/12/15 03:46:57;;;;;;;0.83;0.83;;;19.00;58.10;;;;;;5012558;28;20223;-59
2020/12/15 03:49:24;;;;;;;1.73;1.03;;;19.00;58.00;;;;;;5006687;28;20219;-56
2020/12/15 03:51:50;;;;;;;1.13;1.03;;;19.00;58.10;;;;;;5005553;28;20235;-57
2020/12/15 03:54:16;;;;;;;1.27;0.90;;;19.00;58.10;;;;;;5009980;28;20215;-57
2020/12/15 03:56:42;;;;;;;2.63;1.10;;;19.00;58.20;;;;;;5004573;28;20219;-57
2020/12/15 03:59:09;;;;;;;0.87;0.87;;;19.00;58.00;;;;;;5011235;28;20672;-57
2020/12/15 04:01:36;;;;;;;1.30;1.20;;;19.00;58.20;;;;;;5004568;28;20604;-58
2020/12/15 04:04:03;;;;;;;1.63;1.03;;;19.00;57.90;;;;;;5009489;28;20577;-57
2020/12/15 04:06:29;;;;;;;1.63;1.10;;;19.00;58.20;;;;;;5002929;28;20707;-57
2020/12/15 04:08:55;;;;;;;1.40;1.23;;;19.00;58.20;;;;;;5011368;28;20246;-57
2020/12/15 04:11:21;;;;;;;1.07;0.90;;;19.00;58.00;;;;;;5003683;28;20216;-59
2020/12/15 04:13:47;;;;;;;1.43;1.00;;;19.00;58.10;;;;;;5009102;28;20236;-57
2020/12/15 04:16:14;;;;;;;1.47;1.20;;;19.00;58.10;;;;;;5005223;28;20528;-56
2020/12/15 04:18:40;;;;;;;2.03;1.00;;;19.00;58.20;;;;;;5011185;28;20688;-57
2020/12/15 04:21:09;;;;;;;1.67;1.07;;;18.90;58.00;;;;;;5005234;28;20220;-57
2020/12/15 04:23:35;;;;;;;1.40;1.30;;;18.90;58.20;;;;;;5010234;28;20219;-58
2020/12/15 04:26:02;;;;;;;1.40;1.07;;;19.00;58.10;;;;;;5008098;28;20231;-57
2020/12/15 04:28:28;;;;;;;1.50;1.10;;;18.90;58.20;;;;;;5003799;28;20864;-57
2020/12/15 04:30:55;;;;;;;1.83;1.30;;;18.90;58.20;;;;;;5006294;28;20235;-56
2020/12/15 04:33:21;;;;;;;1.83;1.27;;;18.90;58.20;;;;;;5005625;28;20711;-57
2020/12/15 04:35:48;;;;;;;0.90;0.87;;;18.90;58.00;;;;;;5008696;28;20684;-58
2020/12/15 04:38:15;;;;;;;1.50;1.13;;;18.90;58.10;;;;;;5004557;28;20688;-57
2020/12/15 04:40:41;;;;;;;1.67;1.17;;;18.90;58.20;;;;;;5008577;28;20226;-57
2020/12/15 04:43:10;;;;;;;1.00;0.90;;;18.90;58.00;;;;;;5002118;28;20284;-57
2020/12/15 04:45:36;;;;;;;2.63;1.00;;;18.90;58.00;;;;;;5009048;28;20219;-56
2020/12/15 04:48:17;;;;;;;1.17;1.00;;;18.90;58.00;;;;;;5003744;28;20730;-57
2020/12/15 04:50:47;;;;;;;1.00;0.90;;;18.90;58.20;;;;;;5008016;28;20415;-58
2020/12/15 04:53:23;;;;;;;1.13;0.80;;;18.90;58.10;;;;;;5004827;28;20235;-56
2020/12/15 04:55:55;;;;;;;1.37;1.00;;;18.90;58.30;;;;;;5006896;28;20231;-59
2020/12/15 04:58:23;;;;;;;0.97;0.90;;;18.90;58.00;;;;;;5004971;28;20254;-59
2020/12/15 05:00:50;;;;;;;1.00;0.90;;;18.90;58.10;;;;;;5008056;28;20605;-57
2020/12/15 05:03:21;;;;;;;1.83;1.17;;;18.90;57.80;;;;;;5005454;28;20856;-58
2020/12/15 05:05:51;;;;;;;1.17;0.93;;;18.90;58.00;;;;;;5008888;28;20298;-57
2020/12/15 05:08:17;;;;;;;2.50;1.20;;;18.90;58.10;;;;;;5004022;28;22920;-58
2020/12/15 05:10:44;;;;;;;1.10;1.00;;;18.90;57.90;;;;;;5005019;28;20231;-57
2020/12/15 05:13:22;;;;;;;1.53;1.10;;;18.90;57.90;;;;;;5002769;28;20738;-56
2020/12/15 05:15:57;;;;;;;2.53;0.90;;;18.90;58.00;;;;;;5008679;28;20314;-59
2020/12/15 05:18:23;;;;;;;1.80;0.93;;;18.80;58.60;;;;;;5005642;28;20254;-56
2020/12/15 05:20:50;;;;;;;0.97;0.87;;;18.80;58.00;;;;;;5007886;28;20219;-57
2020/12/15 05:23:20;;;;;;;1.20;0.90;;;18.80;57.80;;;;;;5009742;28;20223;-57
2020/12/15 05:26:10;;;;;;;0.97;0.90;;;18.80;57.80;;;;;;4985934;28;20573;-59
2020/12/15 05:28:36;;;;;;;1.23;1.10;;;18.90;58.00;;;;;;5007708;28;20221;-57
2020/12/15 05:31:03;;;;;;;2.57;1.07;;;18.80;57.80;;;;;;4998558;28;20219;-59
2020/12/15 05:33:29;;;;;;;2.67;1.27;;;18.80;57.90;;;;;;4989241;28;20822;-58
2020/12/15 05:35:55;;;;;;;1.80;1.00;;;18.80;57.90;;;;;;5003860;28;20223;-57
2020/12/15 05:38:22;;;;;;;0.87;0.87;;;18.80;58.00;;;;;;5009280;28;20675;-58
2020/12/15 05:40:48;;;;;;;1.00;0.90;;;18.80;57.90;;;;;;4989425;28;20240;-56
2020/12/15 05:43:24;;;;;;;1.17;1.07;;;18.80;58.00;;;;;;4989205;28;20228;-58
2020/12/15 05:45:56;;;;;;;1.13;1.00;;;18.80;58.50;;;;;;4977974;28;20220;-58
2020/12/15 05:48:26;;;;;;;1.97;1.30;;;18.80;57.80;;;;;;4983374;28;20283;-56
2020/12/15 05:50:57;;;;;;;1.27;1.07;;;18.80;58.00;;;;;;4981117;28;20889;-57
2020/12/15 05:53:23;;;;;;;1.73;1.07;;;18.80;58.10;;;;;;4990190;28;20250;-59
2020/12/15 05:55:50;;;;;;;1.67;1.10;;;18.80;58.00;;;;;;4999451;28;20711;-57
2020/12/15 05:58:16;;;;;;;1.50;1.20;;;18.80;58.20;;;;;;4986911;28;20228;-57
2020/12/15 06:00:43;;;;;;;1.97;1.10;;;18.80;58.10;;;;;;4980563;28;20220;-56
2020/12/15 06:03:09;;;;;;;2.50;1.00;;;18.80;58.00;;;;;;4980944;28;20224;-57
2020/12/15 06:05:37;;;;;;;1.20;1.10;;;18.80;58.00;;;;;;4982998;28;20481;-58
2020/12/15 06:08:05;;;;;;;1.37;1.00;;;18.80;58.10;;;;;;4988150;28;20224;-59
2020/12/15 06:10:33;;;;;;;1.57;1.30;;;18.80;58.20;;;;;;4989837;28;20231;-58
2020/12/15 06:13:01;;;;;;;2.27;1.20;;;18.80;58.20;;;;;;4989235;28;20307;-58
2020/12/15 06:15:28;;;;;;;2.23;1.40;;;18.70;58.10;;;;;;4983627;28;20373;-59
2020/12/15 06:18:02;;;;;;;3.67;1.30;;;18.70;58.00;;;;;;4989362;28;20224;-60
2020/12/15 06:20:35;;;;;;;1.53;1.00;;;18.80;58.20;;;;;;4991941;28;20253;-60
2020/12/15 06:23:03;;;;;;;1.93;1.33;;;18.80;58.20;;;;;;4974586;28;20232;-60
2020/12/15 06:25:31;;;;;;;2.00;1.27;;;18.70;58.00;;;;;;4985226;28;20227;-59
2020/12/15 06:28:11;;;;;;;1.93;1.30;;;18.70;58.10;;;;;;4981044;28;20227;-58
2020/12/15 06:30:41;;;;;;;1.70;1.20;;;18.70;58.00;;;;;;4980694;28;20285;-58
2020/12/15 06:33:09;;;;;;;2.67;1.50;;;18.70;57.90;;;;;;4982898;28;20216;-58
2020/12/15 06:35:36;;;;;;;2.13;1.00;;;18.70;58.00;;;;;;4997483;28;20256;-59
2020/12/15 06:38:05;;;;;;;2.13;1.30;;;18.70;58.00;;;;;;4972357;28;20224;-59
2020/12/15 06:40:58;;;;;;;1.60;1.03;;;18.70;58.00;;;;;;4985192;28;20224;-60
2020/12/15 06:43:29;;;;;;;1.60;1.43;;;18.70;58.00;;;;;;4963388;28;21578;-59
2020/12/15 06:46:10;;;;;;;1.90;1.20;;;18.70;58.00;;;;;;4982396;28;20388;-58
2020/12/15 06:48:38;;;;;;;2.10;1.30;;;18.70;58.00;;;;;;4975232;28;20564;-59
2020/12/15 06:51:05;;;;;;;1.97;1.43;;;18.70;58.00;;;;;;4982888;28;20228;-59
2020/12/15 06:53:32;;;;;;;2.43;1.10;;;18.70;57.90;;;;;;4970080;28;20235;-60
2020/12/15 06:56:00;;;;;;;1.43;1.17;;;18.70;57.90;;;;;;4983219;28;20239;-59
2020/12/15 06:58:26;;;;;;;1.60;1.10;;;18.70;57.80;;;;;;4988425;28;20234;-59
2020/12/15 07:00:53;;;;;;;1.53;1.00;;;18.70;58.00;;;;;;4991814;28;20234;-58
2020/12/15 07:03:54;;;;;;;2.17;1.33;;;18.70;57.80;;;;;;4988756;28;20223;-60
2020/12/15 07:06:20;;;;;;;1.27;1.17;;;18.70;57.70;;;;;;4990896;28;21104;-58
2020/12/15 07:08:57;;;;;;;3.13;1.30;;;18.70;58.00;;;;;;4974982;28;20231;-58
2020/12/15 07:11:25;;;;;;;2.03;1.33;;;18.60;57.90;;;;;;4974334;28;20262;-58
2020/12/15 07:14:04;;;;;;;1.33;1.20;;;18.70;58.00;;;;;;4969666;28;20240;-59
2020/12/15 07:16:32;;;;;;;3.27;1.37;;;18.70;58.20;;;;;;4978156;28;20727;-64
2020/12/15 07:18:58;;;;;;;3.07;1.30;;;19.00;57.80;;;;;;4974572;28;20231;-60
2020/12/15 07:21:29;;;;;;;2.30;1.50;;;19.40;56.90;;;;;;5000628;28;20235;-56
2020/12/15 07:24:00;;;;;;;1.83;1.40;;;19.80;56.20;;;;;;4992123;28;20231;-58
2020/12/15 07:26:27;;;;;;;2.13;1.20;;;20.20;55.10;;;;;;5009359;28;20250;-60
2020/12/15 07:28:53;;;;;;;1.57;1.47;;;20.40;54.40;;;;;;4993935;28;20620;-58
2020/12/15 07:31:30;;;;;;;3.53;1.27;;;20.60;53.90;;;;;;5005505;28;20211;-59
2020/12/15 07:34:10;;;;;;;2.03;1.17;;;20.90;53.40;;;;;;4994380;28;20429;-59
2020/12/15 07:36:38;;;;;;;2.20;1.20;;;21.00;53.00;;;;;;5008359;28;20687;-59
2020/12/15 07:39:05;;;;;;;1.13;0.90;;;21.20;53.40;;;;;;5014783;28;21831;-60
2020/12/15 07:41:36;;;;;;;1.30;1.10;;;21.30;52.20;;;;;;4984817;28;20395;-62
2020/12/15 07:44:07;;;;;;;1.97;1.20;;;21.50;52.00;;;;;;4996350;28;20232;-60
2020/12/15 07:46:34;;;;;;;1.23;1.13;;;21.60;51.80;;;;;;4998897;28;20227;-60
2020/12/15 07:49:04;;;;;;;2.70;1.43;;;21.60;51.70;;;;;;4997802;28;20270;-57
2020/12/15 07:51:32;;;;;;;1.47;1.00;;;21.70;51.60;;;;;;4982118;28;20631;-60
2020/12/15 07:53:59;;;;;;;1.93;1.30;;;21.80;51.50;;;;;;4995926;28;20299;-60
2020/12/15 07:56:27;;;;;;;1.53;1.00;;;21.90;51.30;;;;;;4992292;28;20233;-59
2020/12/15 07:58:54;;;;;;;2.33;1.20;;;22.10;50.50;;;;;;5002951;28;20238;-59
2020/12/15 08:01:24;;;;;;;1.80;0.80;;;22.30;50.30;;;;;;5000051;28;20235;-59
2020/12/15 08:04:05;;;;;;;1.53;1.10;;;22.40;50.10;;;;;;5001533;28;20282;-58
2020/12/15 08:06:39;;;;;;;1.37;1.23;;;22.40;49.80;;;;;;4987959;28;20660;-62
2020/12/15 08:09:07;;;;;;;1.30;1.10;;;22.40;49.90;;;;;;5003676;28;21587;-61
2020/12/15 08:11:35;;;;;;;1.13;0.93;;;22.50;49.90;;;;;;4996673;28;20211;-62
2020/12/15 08:14:03;;;;;;;4.10;1.30;;;22.60;49.80;;;;;;5002028;28;20311;-62
2020/12/15 08:16:30;;;;;;;3.23;1.20;;;22.70;49.50;;;;;;4999036;28;20734;-60
2020/12/15 08:19:01;;;;;;;3.00;1.10;;;22.80;49.30;;;;;;5001571;28;20215;-60
2020/12/15 08:21:47;;;;;;;1.97;1.30;;;22.90;48.90;;;;;;4978060;28;21372;-61
2020/12/15 08:24:15;;;;;;;1.93;1.10;;;23.00;48.70;;;;;;5000493;28;20818;-62
2020/12/15 08:26:42;;;;;;;2.27;1.40;;;23.00;48.60;;;;;;4996197;28;20227;-60
2020/12/15 08:29:11;;;;;;;2.40;1.10;;;23.60;47.70;;;;;;5000586;28;20227;-60
2020/12/15 08:31:41;;;;;;;1.10;0.83;;;24.00;46.80;;;;;;4994609;28;21908;-61
2020/12/15 08:34:12;;;;;;;1.77;1.27;;;24.20;46.10;;;;;;5002288;28;20240;-60
2020/12/15 08:36:48;;;;;;;1.53;1.03;;;24.40;45.70;;;;;;4996759;28;20273;-60
2020/12/15 08:39:18;;;;;;;0.93;0.87;;;24.60;45.40;;;;;;5000811;28;20230;-60
2020/12/15 08:41:52;;;;;;;1.50;1.00;;;24.80;45.10;;;;;;5002975;28;20981;-59
2020/12/15 08:44:20;;;;;;;10.60;1.50;;;24.90;44.80;;;;;;4995242;28;20393;-62
2020/12/15 08:46:49;;;;;;;1.50;1.10;;;25.00;45.40;;;;;;5004801;28;20448;-61
2020/12/15 08:49:19;;;;;;;3.37;1.40;;;25.00;46.10;;;;;;4990005;28;20232;-61
2020/12/15 08:51:48;;;;;;;8.87;3.00;;;25.10;46.30;;;;;;4983472;28;20808;-61
2020/12/15 08:54:15;;;;;;;5.03;2.30;;;24.80;45.10;;;;;;4977832;28;20232;-61
2020/12/15 08:56:42;;;;;;;6.87;2.70;;;24.50;45.70;;;;;;4986449;28;20228;-62
2020/12/15 08:59:10;;;;;;;6.00;2.63;;;24.70;46.60;;;;;;4988849;28;20238;-66
2020/12/15 09:01:36;;;;;;;6.13;2.00;;;25.10;46.60;;;;;;4997687;28;20231;-65
2020/12/15 09:04:03;;;;;;;4.50;2.17;;;24.80;47.50;;;;;;4976487;28;20232;-65
2020/12/15 09:06:34;;;;;;;6.33;2.10;;;24.40;48.30;;;;;;4983680;28;20236;-64
2020/12/15 09:09:01;;;;;;;4.63;1.90;;;24.10;49.00;;;;;;4977803;28;20604;-68
2020/12/15 09:11:28;;;;;;;6.10;1.90;;;23.90;50.10;;;;;;4985013;28;20247;-68
2020/12/15 09:14:06;;;;;;;7.80;2.20;;;23.70;50.40;;;;;;4978691;28;20228;-66
2020/12/15 09:16:39;;;;;;;2.70;1.90;;;23.60;51.10;;;;;;4985622;28;20254;-66
2020/12/15 09:19:26;;;;;;;2.70;1.50;;;23.50;50.60;;;;;;4996853;28;20223;-64
2020/12/15 09:22:02;;;;;;;4.23;1.70;;;23.50;50.90;;;;;;5003753;28;20239;-67
2020/12/15 09:24:29;;;;;;;2.87;1.77;;;23.50;50.90;;;;;;5013705;28;20234;-66
2020/12/15 09:27:33;;;;;;;3.93;2.00;;;23.50;50.90;;;;;;5006376;28;20223;-66
2020/12/15 09:29:59;;;;;;;3.17;1.67;;;23.40;51.10;;;;;;4965635;28;20282;-67
2020/12/15 09:32:33;;;;;;;4.33;1.50;;;23.30;50.90;;;;;;4985016;28;20270;-63
2020/12/15 09:35:00;;;;;;;5.90;1.90;;;23.40;51.00;;;;;;4986294;28;20699;-71
2020/12/15 09:37:26;;;;;;;3.03;1.83;;;23.30;50.90;;;;;;5000233;28;20236;-66
2020/12/15 09:39:53;;;;;;;4.03;1.60;;;23.30;51.20;;;;;;4982674;28;20231;-67
2020/12/15 09:42:20;;;;;;;4.17;1.60;;;23.30;51.10;;;;;;4984974;28;20251;-60
2020/12/15 09:44:49;;;;;;;3.40;1.70;;;23.30;51.10;;;;;;4994961;28;20223;-60
2020/12/15 09:47:20;;;;;;;4.90;2.13;;;23.30;50.70;;;;;;5008271;28;20220;-60
2020/12/15 09:49:47;;;;;;;2.30;1.50;;;23.30;50.80;;;;;;4998105;28;20587;-61
2020/12/15 09:52:17;;;;;;;3.93;1.87;;;23.20;50.60;;;;;;5005525;28;20294;-60
2020/12/15 09:54:43;;;;;;;2.67;1.40;;;23.20;50.90;;;;;;5006731;28;20227;-60
2020/12/15 09:57:10;;;;;;;2.37;1.80;;;23.20;50.70;;;;;;5001248;28;20228;-61
2020/12/15 09:59:36;;;;;;;3.07;1.63;;;23.20;50.80;;;;;;5003993;28;20226;-60
2020/12/15 10:02:02;;;;;;;8.93;1.50;;;23.20;50.70;;;;;;4999176;28;20711;-61
2020/12/15 10:04:30;;;;;;;4.83;1.20;;;23.20;50.60;;;;;;5005125;28;20289;-64
2020/12/15 10:06:56;;;;;;;1.83;1.20;;;23.20;50.70;;;;;;5003748;28;20228;-63
2020/12/15 10:09:23;;;;;;;3.07;1.57;;;23.20;50.70;;;;;;5006095;28;20258;-64
2020/12/15 10:11:50;;;;;;;3.93;1.43;;;23.20;51.20;;;;;;4999311;28;20718;-63
2020/12/15 10:14:16;;;;;;;2.33;1.37;;;23.20;50.60;;;;;;5005759;28;20219;-60
2020/12/15 10:16:42;;;;;;;2.13;1.20;;;23.20;50.40;;;;;;5000187;28;20223;-59
2020/12/15 10:19:11;;;;;;;3.93;1.20;;;23.20;50.50;;;;;;5001461;28;21689;-56
2020/12/15 10:21:37;;;;;;;2.30;1.60;;;22.70;48.80;;;;;;4996873;28;20221;-56
2020/12/15 10:24:04;;;;;;;7.43;3.37;;;22.40;49.20;;;;;;5004973;28;20238;-60
2020/12/15 10:26:30;;;;;;;2.27;1.67;;;22.30;50.50;;;;;;5000033;28;20235;-61
2020/12/15 10:28:57;;;;;;;2.83;1.70;;;22.40;52.40;;;;;;5005128;28;20235;-62
2020/12/15 10:31:23;;;;;;;3.53;1.40;;;22.50;52.50;;;;;;4999396;28;20703;-63
2020/12/15 10:33:50;;;;;;;2.77;1.57;;;22.70;52.40;;;;;;5007873;28;20238;-59
2020/12/15 10:36:22;;;;;;;1.83;1.03;;;22.70;52.40;;;;;;5005131;28;20224;-62
2020/12/15 10:38:48;;;;;;;2.73;1.23;;;22.80;52.70;;;;;;4997300;28;20219;-62
2020/12/15 10:41:14;;;;;;;3.27;1.20;;;22.90;52.90;;;;;;5005773;28;20231;-62
2020/12/15 10:43:40;;;;;;;3.70;1.20;;;22.90;52.70;;;;;;4999251;28;20246;-60
2020/12/15 10:46:25;;;;;;;1.90;1.27;;;22.90;52.40;;;;;;5003502;28;20233;-65
2020/12/15 10:48:52;;;;;;;3.00;1.07;;;22.90;52.00;;;;;;4998656;28;20246;-65
2020/12/15 10:51:19;;;;;;;2.07;1.37;;;22.90;52.70;;;;;;5004420;28;20227;-71
2020/12/15 10:53:45;;;;;;;2.63;1.30;;;22.90;52.30;;;;;;4997052;28;20227;-67
2020/12/15 10:56:14;;;;;;;1.23;1.03;;;23.00;52.60;;;;;;5006051;28;20853;-59
2020/12/15 10:58:41;;;;;;;3.00;1.10;;;22.90;52.20;;;;;;4996677;28;20227;-60
2020/12/15 11:01:11;;;;;;;2.23;1.20;;;23.00;52.20;;;;;;5005649;28;20227;-59
2020/12/15 11:03:37;;;;;;;2.80;1.30;;;23.00;52.60;;;;;;4996353;28;20285;-60
2020/12/15 11:06:06;;;;;;;1.47;1.27;;;22.90;52.10;;;;;;5004766;28;20697;-62
2020/12/15 11:08:33;;;;;;;1.87;1.23;;;22.90;52.00;;;;;;4996208;28;20219;-61
2020/12/15 11:11:00;;;;;;;1.60;1.13;;;23.00;52.50;;;;;;5005403;28;20238;-58
2020/12/15 11:13:26;;;;;;;5.03;1.20;;;23.00;52.00;;;;;;4995251;28;20242;-59
2020/12/15 11:15:52;;;;;;;3.00;1.10;;;23.00;51.70;;;;;;5002270;28;20238;-59
2020/12/15 11:18:19;;;;;;;1.17;1.07;;;23.00;51.40;;;;;;4997300;28;20262;-58
2020/12/15 11:20:46;;;;;;;4.57;1.10;;;23.10;52.00;;;;;;5002538;28;20238;-61
2020/12/15 11:23:12;;;;;;;1.13;1.03;;;23.00;51.20;;;;;;5005347;28;20782;-60
2020/12/15 11:25:40;;;;;;;1.93;1.10;;;23.00;51.40;;;;;;4996124;28;20211;-62
2020/12/15 11:28:06;;;;;;;1.87;1.10;;;23.00;51.70;;;;;;5003981;28;20230;-56
2020/12/15 11:30:33;;;;;;;2.30;1.23;;;22.90;49.50;;;;;;4997123;28;20223;-64
2020/12/15 11:33:00;;;;;;;2.93;1.17;;;22.70;51.60;;;;;;5003502;28;20240;-65
2020/12/15 11:35:27;;;;;;;3.43;1.47;;;22.80;50.90;;;;;;4994236;28;20231;-58
2020/12/15 11:37:58;;;;;;;2.20;1.23;;;22.60;49.70;;;;;;5002974;28;20235;-60
2020/12/15 11:40:26;;;;;;;1.47;1.30;;;22.20;50.10;;;;;;4997942;28;20227;-57
2020/12/15 11:42:56;;;;;;;1.57;1.20;;;22.10;50.40;;;;;;5008162;28;21406;-58
2020/12/15 11:45:24;;;;;;;1.70;1.03;;;22.00;50.80;;;;;;4998561;28;20219;-61
2020/12/15 11:47:54;;;;;;;4.53;1.20;;;21.90;50.90;;;;;;5010241;28;20216;-60
2020/12/15 11:50:20;;;;;;;3.13;1.17;;;21.80;51.00;;;;;;5014677;28;20231;-61
2020/12/15 11:52:47;;;;;;;2.03;1.30;;;21.80;51.10;;;;;;5009022;28;20226;-60
2020/12/15 11:55:13;;;;;;;2.07;1.40;;;21.70;51.20;;;;;;5000255;28;20228;-59
2020/12/15 11:57:40;;;;;;;1.57;1.30;;;21.60;51.20;;;;;;5008304;28;20219;-61
2020/12/15 12:00:08;;;;;;;2.70;1.37;;;21.60;51.40;;;;;;5014640;28;20243;-58
2020/12/15 12:02:35;;;;;;;1.83;1.00;;;21.50;51.50;;;;;;5009444;28;20651;-58
2020/12/15 12:05:03;;;;;;;1.40;1.30;;;21.40;51.50;;;;;;5007366;28;20223;-56
2020/12/15 12:07:35;;;;;;;2.13;1.20;;;21.40;51.70;;;;;;4999242;28;20227;-59
2020/12/15 12:10:02;;;;;;;1.73;1.20;;;21.40;51.80;;;;;;5009974;28;20235;-59
2020/12/15 12:12:28;;;;;;;2.97;1.23;;;21.50;53.20;;;;;;5003350;28;20692;-61
2020/12/15 12:14:54;;;;;;;2.20;1.20;;;21.60;52.70;;;;;;5010126;28;20231;-59
2020/12/15 12:17:21;;;;;;;1.30;1.10;;;21.80;52.40;;;;;;5004721;28;20721;-59
2020/12/15 12:19:48;;;;;;;2.13;1.27;;;21.90;52.40;;;;;;5007400;28;20228;-60
2020/12/15 12:22:15;;;;;;;1.07;0.97;;;21.90;52.20;;;;;;5004900;28;20731;-62
2020/12/15 12:24:42;;;;;;;1.47;1.00;;;22.00;52.10;;;;;;5009080;28;20270;-60
2020/12/15 12:27:09;;;;;;;0.80;0.80;;;22.00;52.10;;;;;;4999188;28;20231;-62
2020/12/15 12:29:36;;;;;;;2.50;0.83;;;22.10;52.00;;;;;;5010559;28;20235;-59
2020/12/15 12:32:03;;;;;;;7.53;1.10;;;22.10;52.20;;;;;;5001923;28;20224;-61
2020/12/15 12:34:29;;;;;;;3.50;0.80;;;22.10;52.60;;;;;;5008906;28;20228;-62
2020/12/15 12:36:56;;;;;;;1.53;1.00;;;22.20;52.70;;;;;;5002805;28;20232;-61
2020/12/15 12:39:22;;;;;;;1.30;1.00;;;22.20;52.40;;;;;;5010650;28;20230;-63
2020/12/15 12:41:49;;;;;;;3.30;0.97;;;22.20;52.20;;;;;;5008393;28;20594;-61
2020/12/15 12:44:16;;;;;;;1.40;1.00;;;22.20;52.10;;;;;;5012449;28;20231;-60
2020/12/15 12:46:42;;;;;;;2.13;0.90;;;22.20;52.20;;;;;;5008131;28;20232;-61
2020/12/15 12:49:08;;;;;;;2.50;1.00;;;22.30;52.30;;;;;;4998859;28;20215;-63
2020/12/15 12:51:35;;;;;;;1.57;0.83;;;22.30;52.80;;;;;;5007800;28;20709;-61
2020/12/15 12:54:01;;;;;;;1.60;1.00;;;22.30;52.30;;;;;;4997778;28;20228;-62